createdAt,value
2024-02-29T00:02:04.855Z,98586.47
2024-02-29T00:04:32.949Z,98584.84
2024-02-29T00:06:59.681Z,98593.09
2024-02-29T00:09:26.384Z,98582.94
2024-02-29T00:11:53.047Z,98577.59
2024-02-29T00:14:19.869Z,98579.16
2024-02-29T00:16:46.636Z,98585.56
2024-02-29T00:19:13.669Z,98581.81
2024-02-29T00:21:42.216Z,98577.78
2024-02-29T00:24:08.985Z,98579.13
2024-02-29T00:26:35.649Z,98580.19
2024-02-29T00:29:05.630Z,98582.59
2024-02-29T00:31:32.228Z,98576.47
2024-02-29T00:33:58.904Z,98578.03
2024-02-29T00:36:25.557Z,98571.59
2024-02-29T00:39:01.993Z,98569.47
2024-02-29T00:41:33.086Z,98569.72
2024-02-29T00:43:59.713Z,98567.31
2024-02-29T00:46:26.420Z,98569.69
2024-02-29T00:48:53.986Z,98563.56
2024-02-29T00:51:20.856Z,98560.88
2024-02-29T00:53:47.459Z,98554.47
2024-02-29T00:56:14.104Z,98551.25
2024-02-29T00:58:40.692Z,98548.59
2024-02-29T01:01:07.386Z,98537.66
2024-02-29T01:03:35.439Z,98536.81
2024-02-29T01:06:02.227Z,98531.44
2024-02-29T01:08:28.829Z,98535.16
2024-02-29T01:10:55.462Z,98534.88
2024-02-29T01:13:22.145Z,98531.44
2024-02-29T01:15:50.357Z,98533.03
2024-02-29T01:18:17.185Z,98533.81
2024-02-29T01:20:43.887Z,98529.00
2024-02-29T01:23:10.597Z,98525.78
2024-02-29T01:25:37.421Z,98522.56
2024-02-29T01:28:04.212Z,98524.16
2024-02-29T01:30:30.870Z,98531.13
2024-02-29T01:32:57.585Z,98528.41
2024-02-29T01:35:24.239Z,98524.66
2024-02-29T01:37:50.996Z,98520.16
2024-02-29T01:40:20.783Z,98507.06
2024-02-29T01:42:47.535Z,98510.00
2024-02-29T01:45:15.073Z,98507.88
2024-02-29T01:47:41.758Z,98508.66
2024-02-29T01:50:09.232Z,98497.41
2024-02-29T01:52:38.325Z,98500.56
2024-02-29T01:55:05.405Z,98492.81
2024-02-29T01:57:32.403Z,98492.88
2024-02-29T01:59:59.138Z,98493.94
2024-02-29T02:02:25.827Z,98484.03
2024-02-29T02:04:52.441Z,98495.72
2024-02-29T02:07:19.179Z,98484.81
2024-02-29T02:09:47.485Z,98477.84
2024-02-29T02:12:14.407Z,98474.41
2024-02-29T02:14:41.086Z,98480.25
2024-02-29T02:17:08.321Z,98473.56
2024-02-29T02:19:35.030Z,98469.25
2024-02-29T02:22:05.327Z,98468.97
2024-02-29T02:24:35.601Z,98461.75
2024-02-29T02:27:02.365Z,98464.91
2024-02-29T02:29:29.010Z,98467.03
2024-02-29T02:31:56.799Z,98463.28
2024-02-29T02:34:23.454Z,98460.88
2024-02-29T02:36:50.129Z,98458.72
2024-02-29T02:39:16.870Z,98451.25
2024-02-29T02:41:46.166Z,98449.63
2024-02-29T02:44:13.423Z,98453.88
2024-02-29T02:46:40.139Z,98453.06
2024-02-29T02:49:07.000Z,98450.38
2024-02-29T02:51:33.939Z,98445.59
2024-02-29T02:54:00.686Z,98444.78
2024-02-29T02:56:27.340Z,98442.38
2024-02-29T02:58:54.060Z,98436.50
2024-02-29T03:01:20.730Z,98441.28
2024-02-29T03:03:47.458Z,98435.66
2024-02-29T03:06:15.528Z,98434.31
2024-02-29T03:08:42.265Z,98435.38
2024-02-29T03:11:09.098Z,98435.88
2024-02-29T03:13:36.137Z,98438.81
2024-02-29T03:16:02.837Z,98436.41
2024-02-29T03:18:29.632Z,98431.84
2024-02-29T03:20:56.241Z,98433.19
2024-02-29T03:23:22.924Z,98434.50
2024-02-29T03:25:49.642Z,98436.34
2024-02-29T03:28:16.302Z,98437.66
2024-02-29T03:30:43.060Z,98427.28
2024-02-29T03:33:09.764Z,98419.03
2024-02-29T03:35:36.558Z,98429.38
2024-02-29T03:38:04.045Z,98423.28
2024-02-29T03:40:30.768Z,98425.63
2024-02-29T03:42:57.639Z,98421.91
2024-02-29T03:45:24.415Z,98431.75
2024-02-29T03:47:51.130Z,98425.31
2024-02-29T03:50:17.770Z,98421.06
2024-02-29T03:52:44.394Z,98430.38
2024-02-29T03:55:12.546Z,98423.94
2024-02-29T03:57:39.547Z,98423.91
2024-02-29T04:00:12.112Z,98423.34
2024-02-29T04:02:39.477Z,98415.03
2024-02-29T04:05:07.399Z,98408.34
2024-02-29T04:07:34.040Z,98409.91
2024-02-29T04:10:00.791Z,98412.03
2024-02-29T04:12:27.955Z,98406.69
2024-02-29T04:14:54.600Z,98403.00
2024-02-29T04:17:21.241Z,98403.78
2024-02-29T04:19:47.878Z,98398.72
2024-02-29T04:22:17.377Z,98400.84
2024-02-29T04:24:44.050Z,98394.13
2024-02-29T04:27:10.688Z,98392.50
2024-02-29T04:29:38.126Z,98395.13
2024-02-29T04:32:05.079Z,98399.88
2024-02-29T04:34:31.747Z,98387.91
2024-02-29T04:36:58.438Z,98387.91
2024-02-29T04:39:25.266Z,98389.22
2024-02-29T04:41:51.872Z,98390.50
2024-02-29T04:44:19.547Z,98392.63
2024-02-29T04:46:46.210Z,98394.72
2024-02-29T04:49:12.920Z,98387.81
2024-02-29T04:51:39.598Z,98388.06
2024-02-29T04:54:06.281Z,98385.91
2024-02-29T04:56:32.976Z,98385.34
2024-02-29T04:58:59.605Z,98381.09
2024-02-29T05:01:26.296Z,98382.63
2024-02-29T05:03:53.051Z,98374.34
2024-02-29T05:06:19.708Z,98378.88
2024-02-29T05:08:46.383Z,98374.84
2024-02-29T05:11:13.832Z,98376.16
2024-02-29T05:13:40.993Z,98370.03
2024-02-29T05:16:07.867Z,98370.53
2024-02-29T05:18:34.720Z,98371.03
2024-02-29T05:21:01.352Z,98370.22
2024-02-29T05:23:27.945Z,98369.69
2024-02-29T05:25:54.650Z,98359.50
2024-02-29T05:28:21.337Z,98357.34
2024-02-29T05:30:48.098Z,98356.59
2024-02-29T05:33:14.831Z,98355.72
2024-02-29T05:35:41.468Z,98355.16
2024-02-29T05:38:08.679Z,98357.50
2024-02-29T05:40:36.345Z,98361.22
2024-02-29T05:43:04.945Z,98353.50
2024-02-29T05:45:31.735Z,98347.66
2024-02-29T05:47:58.399Z,98344.19
2024-02-29T05:50:25.080Z,98341.84
2024-02-29T05:52:52.106Z,98341.78
2024-02-29T05:55:18.947Z,98342.03
2024-02-29T05:57:45.704Z,98338.81
2024-02-29T06:00:12.777Z,98341.72
2024-02-29T06:02:39.831Z,98341.41
2024-02-29T06:05:07.264Z,98337.38
2024-02-29T06:07:34.664Z,98334.19
2024-02-29T06:10:03.142Z,98341.59
2024-02-29T06:12:31.526Z,98328.56
2024-02-29T06:14:58.327Z,98328.56
2024-02-29T06:17:25.000Z,98321.91
2024-02-29T06:19:51.612Z,98320.28
2024-02-29T06:22:19.814Z,98329.28
2024-02-29T06:24:46.536Z,98321.56
2024-02-29T06:27:13.266Z,98323.91
2024-02-29T06:29:39.897Z,98316.19
2024-02-29T06:32:06.857Z,98314.06
2024-02-29T06:34:33.480Z,98316.19
2024-02-29T06:37:00.199Z,98315.06
2024-02-29T06:39:26.848Z,98315.06
2024-02-29T06:41:53.577Z,98310.00
2024-02-29T06:44:20.234Z,98313.47
2024-02-29T06:46:46.824Z,98308.97
2024-02-29T06:49:13.936Z,98310.56
2024-02-29T06:51:40.710Z,98304.44
2024-02-29T06:54:07.330Z,98303.66
2024-02-29T06:56:34.148Z,98310.25
2024-02-29T06:59:00.865Z,98302.25
2024-02-29T07:01:28.764Z,98303.75
2024-02-29T07:03:55.512Z,98296.25
2024-02-29T07:06:22.136Z,98298.91
2024-02-29T07:08:48.782Z,98294.88
2024-02-29T07:11:15.526Z,98298.56
2024-02-29T07:13:42.162Z,98299.69
2024-02-29T07:16:10.846Z,98296.25
2024-02-29T07:18:38.016Z,98287.72
2024-02-29T07:21:05.692Z,98290.63
2024-02-29T07:23:32.992Z,98296.75
2024-02-29T07:26:02.680Z,98287.19
2024-02-29T07:28:29.308Z,98283.94
2024-02-29T07:30:55.953Z,98278.66
2024-02-29T07:33:22.666Z,98283.72
2024-02-29T07:35:49.711Z,98277.81
2024-02-29T07:38:16.391Z,98278.88
2024-02-29T07:40:43.047Z,98281.78
2024-02-29T07:43:11.329Z,98281.22
2024-02-29T07:45:38.069Z,98277.28
2024-02-29T07:48:05.433Z,98284.13
2024-02-29T07:50:32.710Z,98279.88
2024-02-29T07:52:59.381Z,98278.53
2024-02-29T07:55:27.752Z,98278.53
2024-02-29T07:57:54.434Z,98279.31
2024-02-29T08:00:21.157Z,98269.50
2024-02-29T08:02:47.880Z,98282.22
2024-02-29T08:05:14.799Z,98277.94
2024-02-29T08:07:41.605Z,98280.03
2024-02-29T08:10:08.461Z,98282.16
2024-02-29T08:12:35.428Z,98274.69
2024-02-29T08:15:02.168Z,98277.88
2024-02-29T08:17:29.961Z,98273.13
2024-02-29T08:19:57.701Z,98266.00
2024-02-29T08:22:24.516Z,98270.47
2024-02-29T08:24:51.210Z,98269.91
2024-02-29T08:27:17.844Z,98267.75
2024-02-29T08:29:44.462Z,98259.78
2024-02-29T08:32:15.298Z,98264.84
2024-02-29T08:34:42.470Z,98264.06
2024-02-29T08:37:09.112Z,98265.19
2024-02-29T08:39:36.184Z,98262.19
2024-02-29T08:42:02.955Z,98264.34
2024-02-29T08:44:29.548Z,98260.94
2024-02-29T08:46:56.961Z,98254.00
2024-02-29T08:49:23.755Z,98252.16
2024-02-29T08:51:50.574Z,98258.03
2024-02-29T08:54:17.282Z,98250.31
2024-02-29T08:56:43.896Z,98245.25
2024-02-29T08:59:10.696Z,98252.97
2024-02-29T09:01:37.486Z,98247.66
2024-02-29T09:04:04.239Z,98245.78
2024-02-29T09:06:40.732Z,98243.69
2024-02-29T09:09:08.407Z,98237.56
2024-02-29T09:11:35.107Z,98238.63
2024-02-29T09:14:01.831Z,98235.47
2024-02-29T09:16:28.595Z,98226.69
2024-02-29T09:18:55.395Z,98225.94
2024-02-29T09:21:22.019Z,98223.28
2024-02-29T09:23:50.783Z,98216.09
2024-02-29T09:26:19.329Z,98217.16
2024-02-29T09:28:46.131Z,98218.75
2024-02-29T09:31:15.855Z,98208.94
2024-02-29T09:33:42.848Z,98206.03
2024-02-29T09:36:10.601Z,98209.75
2024-02-29T09:38:37.983Z,98206.53
2024-02-29T09:41:24.612Z,98205.47
2024-02-29T09:43:57.660Z,98204.97
2024-02-29T09:46:25.334Z,98206.84
2024-02-29T09:48:53.388Z,98205.28
2024-02-29T09:51:23.355Z,98205.28
2024-02-29T09:53:50.924Z,98189.69
2024-02-29T09:56:18.942Z,98186.22
2024-02-29T09:58:45.546Z,98177.44
2024-02-29T10:01:12.313Z,98174.53
2024-02-29T10:03:39.017Z,98176.41
2024-02-29T10:06:06.546Z,98168.44
2024-02-29T10:08:33.228Z,98170.28
2024-02-29T10:10:59.884Z,98162.31
2024-02-29T10:13:40.309Z,98164.97
2024-02-29T10:16:10.348Z,98163.38
2024-02-29T10:18:37.852Z,98158.84
2024-02-29T10:21:11.827Z,98157.81
2024-02-29T10:23:39.858Z,98152.50
2024-02-29T10:26:06.616Z,98150.63
2024-02-29T10:28:33.291Z,98149.59
2024-02-29T10:31:01.518Z,98138.50
2024-02-29T10:33:28.933Z,98127.88
2024-02-29T10:35:55.803Z,98128.41
2024-02-29T10:38:22.509Z,98132.66
2024-02-29T10:40:51.177Z,98123.41
2024-02-29T10:43:19.176Z,98125.00
2024-02-29T10:45:47.613Z,98120.75
2024-02-29T10:48:23.591Z,98113.06
2024-02-29T10:51:13.276Z,98114.69
2024-02-29T10:54:03.833Z,98106.22
2024-02-29T10:56:30.525Z,98099.59
2024-02-29T10:59:04.602Z,98095.63
2024-02-29T11:01:32.507Z,98088.75
2024-02-29T11:03:59.618Z,98088.25
2024-02-29T11:06:27.410Z,98080.81
2024-02-29T11:08:54.592Z,98083.78
2024-02-29T11:11:27.558Z,98077.41
2024-02-29T11:14:06.421Z,98073.50
2024-02-29T11:16:33.778Z,98071.94
2024-02-29T11:19:04.273Z,98062.94
2024-02-29T11:21:30.974Z,98054.44
2024-02-29T11:24:07.635Z,98056.84
2024-02-29T11:26:37.857Z,98055.84
2024-02-29T11:29:16.843Z,98038.88
2024-02-29T11:31:45.311Z,98033.81
2024-02-29T11:34:12.351Z,98027.94
2024-02-29T11:36:39.462Z,98029.31
2024-02-29T11:39:10.992Z,98023.75
2024-02-29T11:41:38.028Z,98019.50
2024-02-29T11:44:04.727Z,98014.47
2024-02-29T11:46:31.356Z,98012.09
2024-02-29T11:48:58.240Z,98005.72
2024-02-29T11:51:25.011Z,97999.63
2024-02-29T11:53:51.693Z,97987.69
2024-02-29T11:56:18.423Z,97978.38
2024-02-29T11:58:45.179Z,97975.22
2024-02-29T12:01:13.866Z,97968.56
2024-02-29T12:03:40.904Z,97962.72
2024-02-29T12:06:07.817Z,97963.28
2024-02-29T12:08:34.433Z,97967.31
2024-02-29T12:11:01.325Z,97956.66
2024-02-29T12:13:28.606Z,97951.84
2024-02-29T12:15:55.986Z,97953.22
2024-02-29T12:18:23.248Z,97952.16
2024-02-29T12:20:50.013Z,97946.31
2024-02-29T12:23:16.971Z,97946.56
2024-02-29T12:25:46.991Z,97946.28
2024-02-29T12:28:13.862Z,97935.38
2024-02-29T12:30:40.832Z,97925.03
2024-02-29T12:33:07.825Z,97925.31
2024-02-29T12:35:34.627Z,97921.88
2024-02-29T12:38:04.549Z,97916.00
2024-02-29T12:40:31.460Z,97916.00
2024-02-29T12:42:58.990Z,97913.06
2024-02-29T12:45:28.081Z,97915.50
2024-02-29T12:47:58.106Z,97911.50
2024-02-29T12:50:24.887Z,97903.25
2024-02-29T12:52:55.422Z,97893.41
2024-02-29T12:55:23.420Z,97884.09
2024-02-29T12:57:50.818Z,97884.34
2024-02-29T13:00:22.755Z,97873.97
2024-02-29T13:02:50.974Z,97866.53
2024-02-29T13:05:18.405Z,97869.16
2024-02-29T13:07:45.648Z,97859.56
2024-02-29T13:10:12.419Z,97859.28
2024-02-29T13:12:40.858Z,97843.84
2024-02-29T13:15:07.932Z,97842.25
2024-02-29T13:17:35.165Z,97834.53
2024-02-29T13:20:02.208Z,97839.31
2024-02-29T13:22:28.902Z,97833.44
2024-02-29T13:24:55.626Z,97826.53
2024-02-29T13:27:22.357Z,97821.44
2024-02-29T13:29:49.060Z,97822.78
2024-02-29T13:32:15.704Z,97817.16
2024-02-29T13:34:42.329Z,97806.22
2024-02-29T13:37:09.039Z,97794.28
2024-02-29T13:39:35.764Z,97790.44
2024-02-29T13:42:06.594Z,97790.94
2024-02-29T13:44:33.639Z,97789.53
2024-02-29T13:47:00.295Z,97780.25
2024-02-29T13:49:27.081Z,97769.50
2024-02-29T13:51:54.607Z,97764.97
2024-02-29T13:54:21.377Z,97761.28
2024-02-29T13:56:48.149Z,97755.38
2024-02-29T13:59:14.886Z,97754.59
2024-02-29T14:01:41.656Z,97753.25
2024-02-29T14:04:08.511Z,97752.69
2024-02-29T14:06:35.262Z,97743.09
2024-02-29T14:09:01.943Z,97739.59
2024-02-29T14:11:29.338Z,97735.00
2024-02-29T14:13:56.185Z,97732.06
2024-02-29T14:16:23.219Z,97734.09
2024-02-29T14:18:49.966Z,97722.38
2024-02-29T14:21:16.852Z,97722.06
2024-02-29T14:23:43.644Z,97710.81
2024-02-29T14:26:10.270Z,97714.09
2024-02-29T14:28:36.965Z,97711.00
2024-02-29T14:31:07.272Z,97705.91
2024-02-29T14:33:35.044Z,97708.59
2024-02-29T14:36:01.667Z,97698.44
2024-02-29T14:38:28.358Z,97694.41
2024-02-29T14:40:54.990Z,97690.59
2024-02-29T14:43:21.767Z,97682.31
2024-02-29T14:45:49.377Z,97682.78
2024-02-29T14:48:16.184Z,97678.47
2024-02-29T14:50:43.046Z,97682.47
2024-02-29T14:53:09.785Z,97681.19
2024-02-29T14:55:36.598Z,97678.16
2024-02-29T14:58:03.396Z,97674.34
2024-02-29T15:00:30.399Z,97670.22
2024-02-29T15:02:57.457Z,97667.63
2024-02-29T15:05:24.217Z,97656.22
2024-02-29T15:07:53.763Z,97659.19
2024-02-29T15:10:21.008Z,97650.59
2024-02-29T15:12:47.992Z,97647.63
2024-02-29T15:15:14.740Z,97655.09
2024-02-29T15:17:41.507Z,97647.59
2024-02-29T15:20:09.856Z,97643.53
2024-02-29T15:22:36.616Z,97641.97
2024-02-29T15:25:05.422Z,97641.09
2024-02-29T15:27:39.204Z,97633.38
2024-02-29T15:30:08.264Z,97638.16
2024-02-29T15:32:35.102Z,97637.28
2024-02-29T15:35:01.807Z,97629.03
2024-02-29T15:37:29.107Z,97628.81
2024-02-29T15:39:57.177Z,97620.13
2024-02-29T15:42:23.871Z,97624.31
2024-02-29T15:44:50.524Z,97608.16
2024-02-29T15:47:17.143Z,97613.25
2024-02-29T15:49:45.570Z,97599.34
2024-02-29T15:52:13.667Z,97600.28
2024-02-29T15:54:40.373Z,97609.41
2024-02-29T15:57:07.369Z,97592.31
2024-02-29T15:59:34.076Z,97587.97
2024-02-29T16:02:00.806Z,97591.69
2024-02-29T16:04:30.262Z,97591.91
2024-02-29T16:06:59.825Z,97588.97
2024-02-29T16:09:32.756Z,97582.50
2024-02-29T16:12:00.458Z,97587.28
2024-02-29T16:14:29.744Z,97586.78
2024-02-29T16:16:58.911Z,97579.56
2024-02-29T16:19:28.153Z,97576.88
2024-02-29T16:21:54.999Z,97577.41
2024-02-29T16:24:21.727Z,97577.41
2024-02-29T16:26:48.386Z,97577.41
2024-02-29T16:29:15.028Z,97573.03
2024-02-29T16:31:41.675Z,97573.25
2024-02-29T16:34:09.178Z,97577.81
2024-02-29T16:36:35.880Z,97577.81
2024-02-29T16:39:02.589Z,97571.06
2024-02-29T16:41:29.272Z,97577.75
2024-02-29T16:43:55.939Z,97571.81
2024-02-29T16:46:25.145Z,97569.44
2024-02-29T16:48:57.720Z,97567.53
2024-02-29T16:51:24.379Z,97560.53
2024-02-29T16:53:55.596Z,97564.50
2024-02-29T16:56:26.286Z,97555.38
2024-02-29T16:58:53.084Z,97558.03
2024-02-29T17:01:19.911Z,97551.94
2024-02-29T17:03:46.826Z,97551.63
2024-02-29T17:06:13.590Z,97552.69
2024-02-29T17:08:40.203Z,97550.53
2024-02-29T17:11:06.921Z,97549.72
2024-02-29T17:13:33.589Z,97548.41
2024-02-29T17:16:00.333Z,97542.25
2024-02-29T17:18:28.503Z,97547.59
2024-02-29T17:20:55.599Z,97545.72
2024-02-29T17:23:22.325Z,97539.03
2024-02-29T17:25:48.959Z,97542.25
2024-02-29T17:28:15.727Z,97539.03
2024-02-29T17:30:42.400Z,97539.84
2024-02-29T17:33:09.074Z,97552.69
2024-02-29T17:35:36.992Z,97551.94
2024-02-29T17:38:03.912Z,97552.50
2024-02-29T17:40:30.593Z,97546.34
2024-02-29T17:42:57.983Z,97548.22
2024-02-29T17:45:24.855Z,97540.19
2024-02-29T17:47:51.583Z,97538.03
2024-02-29T17:50:18.803Z,97533.00
2024-02-29T17:52:45.576Z,97527.63
2024-02-29T17:55:18.973Z,97523.88
2024-02-29T17:57:48.852Z,97510.78
2024-02-29T18:00:16.320Z,97523.69
2024-02-29T18:02:43.427Z,97519.41
2024-02-29T18:05:10.980Z,97511.38
2024-02-29T18:07:43.728Z,97514.06
2024-02-29T18:10:17.490Z,97510.91
2024-02-29T18:12:44.295Z,97508.22
2024-02-29T18:15:12.417Z,97501.72
2024-02-29T18:17:39.071Z,97506.84
2024-02-29T18:20:09.243Z,97498.00
2024-02-29T18:22:35.972Z,97499.09
2024-02-29T18:25:02.934Z,97501.78
2024-02-29T18:27:29.786Z,97489.69
2024-02-29T18:29:56.426Z,97490.00
2024-02-29T18:32:23.162Z,97492.66
2024-02-29T18:34:49.815Z,97485.75
2024-02-29T18:37:16.492Z,97490.56
2024-02-29T18:39:43.222Z,97489.00
2024-02-29T18:42:10.297Z,97487.44
2024-02-29T18:44:36.964Z,97485.81
2024-02-29T18:47:03.850Z,97480.00
2024-02-29T18:49:30.666Z,97480.00
2024-02-29T18:51:57.443Z,97472.25
2024-02-29T18:54:24.157Z,97478.38
2024-02-29T18:56:50.818Z,97470.66
2024-02-29T18:59:17.584Z,97478.97
2024-02-29T19:01:44.775Z,97472.06
2024-02-29T19:04:12.744Z,97471.97
2024-02-29T19:06:39.591Z,97480.28
2024-02-29T19:09:07.543Z,97475.22
2024-02-29T19:11:35.128Z,97481.06
2024-02-29T19:14:01.872Z,97477.91
2024-02-29T19:16:28.663Z,97479.78
2024-02-29T19:18:55.417Z,97478.97
2024-02-29T19:21:22.133Z,97477.09
2024-02-29T19:23:49.088Z,97469.59
2024-02-29T19:26:15.774Z,97469.88
2024-02-29T19:28:42.389Z,97472.56
2024-02-29T19:31:09.139Z,97468.28
2024-02-29T19:33:38.944Z,97461.34
2024-02-29T19:36:06.757Z,97465.59
2024-02-29T19:38:33.402Z,97448.81
2024-02-29T19:41:00.046Z,97458.91
2024-02-29T19:43:26.679Z,97450.88
2024-02-29T19:45:53.442Z,97446.13
2024-02-29T19:48:20.119Z,97448.00
2024-02-29T19:50:48.375Z,97444.22
2024-02-29T19:53:15.455Z,97439.00
2024-02-29T19:55:43.356Z,97435.03
2024-02-29T19:58:10.840Z,97435.03
2024-02-29T20:00:37.577Z,97422.25
2024-02-29T20:03:04.499Z,97418.28
2024-02-29T20:05:31.718Z,97424.22
2024-02-29T20:07:58.390Z,97423.44
2024-02-29T20:10:25.329Z,97418.28
2024-02-29T20:12:52.160Z,97419.97
2024-02-29T20:15:18.910Z,97423.50
2024-02-29T20:17:45.598Z,97421.13
2024-02-29T20:20:12.609Z,97418.53
2024-02-29T20:22:39.272Z,97421.03
2024-02-29T20:25:06.868Z,97423.47
2024-02-29T20:27:36.880Z,97427.75
2024-02-29T20:30:04.642Z,97433.09
2024-02-29T20:32:31.346Z,97432.00
2024-02-29T20:34:58.002Z,97428.22
2024-02-29T20:37:24.844Z,97419.81
2024-02-29T20:39:52.850Z,97413.97
2024-02-29T20:42:19.540Z,97414.84
2024-02-29T20:44:46.226Z,97405.25
2024-02-29T20:47:12.871Z,97410.59
2024-02-29T20:49:39.586Z,97412.16
2024-02-29T20:52:07.812Z,97405.75
2024-02-29T20:54:34.710Z,97412.75
2024-02-29T20:57:01.410Z,97405.31
2024-02-29T20:59:28.522Z,97401.88
2024-02-29T21:01:55.334Z,97394.44
2024-02-29T21:04:22.168Z,97398.19
2024-02-29T21:06:49.305Z,97384.94
2024-02-29T21:09:16.170Z,97383.84
2024-02-29T21:11:42.963Z,97387.59
2024-02-29T21:14:09.625Z,97385.22
2024-02-29T21:16:36.910Z,97378.88
2024-02-29T21:19:04.132Z,97382.31
2024-02-29T21:21:31.125Z,97378.38
2024-02-29T21:23:57.802Z,97377.88
2024-02-29T21:26:24.450Z,97363.72
2024-02-29T21:28:51.062Z,97367.25
2024-02-29T21:31:17.884Z,97370.13
2024-02-29T21:33:44.648Z,97355.00
2024-02-29T21:36:14.226Z,97365.81
2024-02-29T21:38:44.416Z,97363.03
2024-02-29T21:41:11.415Z,97364.13
2024-02-29T21:43:38.125Z,97366.81
2024-02-29T21:46:05.409Z,97358.88
2024-02-29T21:48:32.052Z,97360.25
2024-02-29T21:50:58.672Z,97363.78
2024-02-29T21:53:25.297Z,97361.56
2024-02-29T21:55:52.265Z,97354.72
2024-02-29T21:58:18.999Z,97367.06
2024-02-29T22:00:45.750Z,97364.47
2024-02-29T22:03:12.661Z,97360.81
2024-02-29T22:05:39.688Z,97363.25
2024-02-29T22:08:06.806Z,97351.00
2024-02-29T22:10:33.760Z,97357.41
2024-02-29T22:13:00.724Z,97359.88
2024-02-29T22:15:27.949Z,97361.44
2024-02-29T22:17:56.808Z,97361.22
2024-02-29T22:20:24.385Z,97355.41
2024-02-29T22:22:51.033Z,97353.03
2024-02-29T22:25:20.515Z,97359.72
2024-02-29T22:27:47.330Z,97357.66
2024-02-29T22:30:15.131Z,97356.03
2024-02-29T22:32:41.809Z,97352.31
2024-02-29T22:35:09.112Z,97347.56
2024-02-29T22:37:36.140Z,97347.31
2024-02-29T22:40:03.894Z,97345.75
2024-02-29T22:42:30.856Z,97333.00
2024-02-29T22:44:57.519Z,97331.38
2024-02-29T22:47:24.187Z,97331.66
2024-02-29T22:49:50.891Z,97339.66
2024-02-29T22:52:19.191Z,97332.75
2024-02-29T22:54:45.924Z,97327.44
2024-02-29T22:57:12.576Z,97328.00
2024-02-29T22:59:39.247Z,97332.81
2024-02-29T23:02:06.124Z,97332.81
2024-02-29T23:04:33.818Z,97332.91
2024-02-29T23:07:00.626Z,97335.06
2024-02-29T23:09:27.312Z,97332.69
2024-02-29T23:11:54.500Z,97334.56
2024-02-29T23:14:21.176Z,97327.16
2024-02-29T23:16:47.866Z,97328.22
2024-02-29T23:19:14.588Z,97322.09
2024-02-29T23:21:41.257Z,97314.88
2024-02-29T23:24:08.132Z,97315.16
2024-02-29T23:26:34.808Z,97311.22
2024-02-29T23:29:01.891Z,97312.59
2024-02-29T23:31:28.729Z,97316.03
2024-02-29T23:33:55.463Z,97308.59
2024-02-29T23:36:22.188Z,97305.16
2024-02-29T23:38:48.818Z,97303.31
2024-02-29T23:41:15.586Z,97300.94
2024-02-29T23:43:42.520Z,97300.44
2024-02-29T23:46:09.261Z,97293.81
2024-02-29T23:48:36.032Z,97289.53
2024-02-29T23:51:03.557Z,97287.16
2024-02-29T23:53:30.191Z,97298.13
2024-02-29T23:55:56.852Z,97293.88
2024-02-29T23:58:23.581Z,97293.88
